Werte bis 5 Uhr SommerzeitDiagramme Harleshausen: Tagesdaten MonatsdatenCSV-Datei: Harleshausen19.csv

Wetterdaten 2019 Station: Harleshausen
Temperaturen in °C relative Nieder- Global- Wind Wind Wind- Sonnen-
Datum Boden Boden Luft Luft Luft Luft Feuchte schlag strahlung max richtung schein
20 cm 5 cm 20 cm 2 m 2 m max 2 m min % mm W/m2*d m/s m/s ° h

19.04.2019 10,5 11,6 16,1 15,2 23,9 6,1 50 0,0 4641 0,9 3,4 --- ---
18.04.2019 9,9 10,9 14,5 13,8 20,5 6,1 51 0,0 4527 1,2 4,0 --- ---
17.04.2019 9,3 10,2 13,6 12,8 20,8 4,1 47 0,0 4313 0,7 2,9 --- ---
16.04.2019 8,6 9,2 11,6 10,5 19,1 2,0 51 0,0 4363 0,8 2,8 --- ---
15.04.2019 8,0 8,5 10,4 8,7 15,4 2,6 59 0,0 4484 1,0 3,3 --- ---
14.04.2019 7,6 7,2 4,5 3,0 7,4 -1,6 83 0,2 2263 0,9 2,6 --- ---
13.04.2019 8,0 7,4 3,1 1,9 5,0 -0,1 84 0,4 1694 0,7 2,3 --- ---
12.04.2019 8,6 8,0 3,8 2,8 4,9 0,9 67 0,4 1514 1,2 2,8 --- ---
11.04.2019 9,2 8,9 6,5 4,7 10,2 -0,7 54 0,0 4067 1,3 3,7 --- ---
10.04.2019 9,8 9,8 7,8 6,7 11,5 2,6 57 0,0 3814 1,3 3,2 --- ---
09.04.2019 10,0 10,6 11,3 10,0 14,8 6,0 68 0,0 3840 1,2 2,9 --- ---
08.04.2019 9,7 10,5 13,2 12,9 20,9 5,7 59 0,0 3064 0,6 2,5 --- ---
07.04.2019 9,3 10,1 12,9 12,6 19,8 6,3 62 0,0 3447 0,8 2,7 --- ---
06.04.2019 8,5 9,5 13,4 12,4 20,3 6,7 67 0,0 3740 0,8 3,3 --- ---
05.04.2019 8,2 8,1 6,9 6,5 8,1 5,0 91 0,1 500 0,5 1,7 --- ---
04.04.2019 8,4 8,3 6,4 5,8 7,5 4,3 92 0,4 587 0,6 2,2 --- ---
03.04.2019 8,5 8,9 9,4 9,7 13,8 5,0 78 10,2 1612 0,8 5,3 --- ---
02.04.2019 8,0 8,2 9,7 9,7 17,8 -0,6 63 0,6 2612 0,8 4,8 --- ---
01.04.2019 8,1 8,1 7,7 6,9 13,6 -0,5 56 0,0 3990 1,0 3,3 --- ---
31.03.2019 8,4 8,6 7,6 7,2 11,8 2,9 73 0,0 1886 0,9 3,1 --- ---
30.03.2019 8,2 8,7 10,5 10,3 20,0 0,6 65 0,0 3486 0,7 3,3 --- ---
29.03.2019 8,0 8,8 12,1 10,9 18,4 3,8 67 0,0 3729 0,4 2,1 --- ---
28.03.2019 7,5 8,2 10,0 9,3 13,1 6,1 71 0,0 1894 0,6 2,8 --- ---
27.03.2019 6,9 7,1 7,7 6,7 11,7 0,3 72 0,0 2355 0,6 2,3 --- ---
26.03.2019 6,9 6,8 5,3 5,4 8,7 3,8 79 0,3 1117 0,9 2,7 --- ---
25.03.2019 7,1 7,0 4,8 4,7 8,7 2,4 78 6,0 2428 1,3 3,6 --- ---
24.03.2019 7,3 7,7 8,2 7,7 13,5 4,1 67 0,0 1772 0,8 2,2 --- ---
23.03.2019 7,0 7,3 7,9 6,8 11,1 2,1 84 0,0 2539 0,8 4,0 --- ---
22.03.2019 6,5 7,1 11,1 10,6 21,0 2,1 70 0,0 3272 0,4 1,9 --- ---
21.03.2019 5,9 6,8 9,1 8,3 17,8 -0,1 71 0,0 3253 0,4 2,0 --- ---
20.03.2019 5,4 5,9 6,2 5,4 14,1 -3,6 72 0,0 2923 0,5 2,5 --- ---
19.03.2019 5,6 5,4 3,4 2,9 9,0 -1,7 73 0,0 1990 0,5 1,9 --- ---
18.03.2019 6,0 4,4 4,1 4,4 9,9 0,8 70 0,5 1895 1,2 3,5 --- ---
17.03.2019 6,4 0,0 6,1 6,9 8,9 3,1 74 4,0 1004 1,6 3,7 --- ---
16.03.2019 6,1 5,9 7,8 8,4 11,3 4,9 75 1,8 1042 1,6 4,6 --- ---
15.03.2019 5,6 5,7 6,9 7,7 12,8 5,6 81 10,5 899 1,6 4,4 --- ---
14.03.2019 5,5 2,0 4,6 5,6 7,7 4,3 83 8,2 637 2,2 5,3 --- ---
13.03.2019 5,6 2,2 5,0 5,5 8,8 3,8 72 2,3 1303 2,3 5,4 --- ---
12.03.2019 5,6 2,6 5,3 5,5 8,8 1,9 66 0,0 1684 2,1 4,8 --- ---
11.03.2019 6,0 5,3 2,6 3,1 5,4 1,0 82 5,5 1287 1,9 5,3 --- ---
10.03.2019 6,4 6,3 5,6 6,1 11,3 2,1 80 13,0 1154 1,9 8,9 --- ---
09.03.2019 6,3 6,4 7,5 7,9 13,1 5,5 72 9,1 1843 2,5 5,8 --- ---
08.03.2019 6,3 6,3 6,8 7,4 9,9 6,0 66 0,3 984 2,0 5,2 --- ---
07.03.2019 6,3 6,7 9,5 10,2 12,9 6,3 62 1,1 1704 2,5 5,9 --- ---
06.03.2019 5,7 5,8 7,9 8,3 12,7 1,6 71 0,1 1625 1,6 4,7 --- ---
05.03.2019 5,9 5,7 4,6 5,2 8,9 1,9 74 0,9 1566 1,8 4,7 --- ---
04.03.2019 6,1 6,5 7,8 8,6 12,4 3,9 68 6,6 1425 2,6 6,8 --- ---
03.03.2019 5,7 6,1 8,6 9,2 11,3 7,2 80 0,5 847 1,8 3,7 --- ---
02.03.2019 5,4 5,5 5,4 5,7 8,5 3,2 83 0,4 687 1,0 2,6 --- ---
01.03.2019 5,2 5,6 6,9 7,1 10,9 3,4 89 1,1 697 0,7 2,3 --- ---
28.02.2019 4,3 4,4 7,8 8,3 15,7 -0,5 66 0,0 1807 0,8 3,4 --- ---
27.02.2019 4,1 3,8 5,4 5,9 17,9 -3,6 59 0,0 2178 0,4 1,7 --- ---
26.02.2019 4,1 4,0 5,5 5,8 18,1 -2,2 63 0,0 2093 0,3 1,4 --- ---
25.02.2019 4,0 3,8 5,1 5,4 17,1 -2,7 65 0,0 1993 0,3 1,1 --- ---
24.02.2019 4,2 3,7 3,6 3,6 14,2 -3,7 60 0,0 1999 0,3 1,6 --- ---
23.02.2019 4,7 4,4 3,0 3,2 9,8 -1,7 66 0,0 1786 0,5 2,0 --- ---
22.02.2019 4,8 5,3 7,1 7,6 9,6 3,1 85 0,0 403 1,0 2,8 --- ---
21.02.2019 4,2 4,4 6,4 7,2 11,6 2,7 79 0,2 974 0,6 2,2 --- ---
20.02.2019 3,8 4,0 5,5 6,0 10,2 2,5 74 0,0 1206 0,8 2,4 --- ---
19.02.2019 3,5 3,4 5,2 6,2 11,9 1,5 66 0,0 1180 0,9 3,9 --- ---
18.02.2019 3,3 3,0 4,4 5,5 14,0 -2,3 68 0,0 1775 0,8 2,9 --- ---
17.02.2019 3,2 2,2 4,7 5,5 15,3 -2,6 68 0,0 1669 0,6 2,4 --- ---
16.02.2019 3,1 2,5 4,9 6,1 13,6 0,9 64 0,0 1742 0,9 2,6 --- ---
15.02.2019 3,2 2,5 3,1 3,8 14,3 -3,3 74 0,0 1680 0,4 1,9 --- ---
14.02.2019 3,5 3,2 2,5 2,9 11,3 -1,5 78 0,0 1371 0,4 1,6 --- ---
13.02.2019 3,6 3,1 3,8 4,0 8,6 1,5 78 0,0 1189 1,1 2,6 --- ---
12.02.2019 3,5 3,3 3,4 3,9 7,1 0,7 71 0,0 915 0,9 2,3 --- ---
11.02.2019 3,7 0,5 2,7 3,6 5,7 2,1 79 4,7 701 1,3 3,4 --- ---
10.02.2019 3,4 3,6 5,2 6,2 8,5 2,8 85 17,3 237 2,2 5,0 --- ---
09.02.2019 2,9 2,7 6,3 7,3 9,6 5,2 66 1,6 814 2,5 5,3 --- ---
08.02.2019 2,2 2,1 4,4 5,2 7,3 2,1 81 0,0 506 2,0 4,5 --- ---
07.02.2019 1,9 1,5 1,7 2,1 3,8 0,8 79 0,0 698 1,4 4,5 --- ---
06.02.2019 1,8 0,6 1,1 1,8 5,6 -1,7 76 0,0 1096 1,4 3,7 --- ---
05.02.2019 1,8 1,5 1,5 2,0 5,1 -0,7 73 0,0 619 1,1 2,8 --- ---
04.02.2019 1,7 1,0 -0,3 0,4 4,0 -4,2 79 0,0 1018 1,1 3,6 --- ---
03.02.2019 1,8 1,5 0,4 1,0 2,4 -1,5 84 0,0 581 1,0 2,7 --- ---
02.02.2019 1,5 1,2 1,1 1,3 2,7 0,4 93 0,6 260 0,5 1,6 --- ---
01.02.2019 1,3 0,6 0,5 1,1 5,7 -1,9 80 0,0 764 0,7 2,4 --- ---
31.01.2019 1,3 0,5 0,2 0,6 3,8 -2,6 73 0,0 975 1,0 2,6 --- ---
30.01.2019 1,4 0,5 -1,4 -0,5 1,1 -3,6 80 0,3 354 0,7 2,7 --- ---
29.01.2019 1,4 1,0 0,1 0,8 4,4 -2,8 83 0,3 789 0,6 2,1 --- ---
28.01.2019 1,1 0,4 1,1 1,8 2,9 0,6 90 3,4 323 1,4 3,3 --- ---
27.01.2019 0,9 0,1 3,3 4,1 5,6 2,1 91 3,2 343 1,8 3,6 --- ---
26.01.2019 1,0 -2,9 1,9 2,6 6,3 -0,5 96 9,5 471 1,2 2,7 --- ---
25.01.2019 1,1 0,0 -3,1 -3,3 -0,5 -5,3 82 2,1 507 1,0 2,6 --- ---
24.01.2019 1,2 -0,1 -4,3 -5,2 -3,8 -6,9 82 0,0 416 0,5 1,8 --- ---
23.01.2019 1,3 -4,5 -4,3 -4,3 -2,5 -6,1 78 0,0 329 0,8 2,9 --- ---
22.01.2019 1,5 -5,8 -5,6 -5,5 -3,0 -9,2 86 0,0 311 1,3 3,2 --- ---
21.01.2019 1,7 0,1 -6,4 -6,7 -1,3 -10,8 86 0,0 897 0,3 2,1 --- ---
20.01.2019 2,2 0,5 -4,9 -4,8 1,7 -9,3 79 0,0 867 0,4 1,4 --- ---
19.01.2019 3,0 1,4 -4,2 -4,0 0,8 -6,9 84 0,0 648 0,3 0,8 --- ---
18.01.2019 4,1 3,1 -1,0 -0,5 3,6 -5,2 75 0,1 772 0,5 2,4 --- ---
17.01.2019 4,5 4,0 3,2 3,9 6,7 1,1 75 1,0 452 1,7 3,8 --- ---
16.01.2019 4,5 4,2 3,7 4,2 6,1 2,6 80 0,0 160 1,5 3,1 --- ---
15.01.2019 4,3 3,8 3,3 4,1 6,3 1,5 73 0,0 318 1,3 3,1 --- ---
14.01.2019 4,7 4,3 2,4 3,3 5,8 1,3 75 3,4 678 1,4 3,6 --- ---
13.01.2019 4,6 4,5 5,2 6,1 8,9 4,2 89 15,4 211 1,5 4,6 --- ---
12.01.2019 4,3 4,0 4,1 5,0 5,9 4,3 86 7,0 174 1,2 2,9 --- ---
11.01.2019 4,1 3,3 1,5 1,9 5,7 -0,8 93 1,1 40 0,7 2,4 --- ---
10.01.2019 4,4 3,6 0,1 0,2 0,9 -1,3 79 0,1 271 0,8 2,9 --- ---
09.01.2019 4,9 4,1 1,0 1,5 3,2 0,3 80 2,3 371 1,7 4,1 --- ---
08.01.2019 5,3 5,0 4,2 5,0 6,3 3,0 81 8,2 516 2,1 4,8 --- ---
07.01.2019 5,2 5,0 4,2 4,7 5,9 3,9 87 0,9 270 0,9 2,6 --- ---
06.01.2019 4,9 5,0 5,7 5,9 6,7 4,8 96 7,8 251 0,8 1,9 --- ---
05.01.2019 4,2 4,1 5,5 6,1 7,2 4,6 92 8,7 187 1,3 3,1 --- ---
04.01.2019 3,8 2,0 1,2 2,0 4,8 -2,0 87 0,0 197 0,9 3,0 --- ---
03.01.2019 4,2 2,8 -1,2 -0,6 2,1 -4,3 85 0,0 224 0,4 1,6 --- ---
02.01.2019 5,2 4,3 0,9 2,2 4,3 -0,6 63 0,6 557 1,5 4,6 --- ---
01.01.2019 5,7 5,6 5,1 6,1 8,4 2,3 81 1,3 158 1,3 3,3 --- ---

Mittelwerte (Temperaturen, Strahlung, rel. Feuchte, Wind), Summe (Regen) für 2019
5,1 4,6 4,8 5,0 75 186 1.471 1,1

Landesbetrieb Landwirtschaft Hessen 2009

      Werte bis 5 Uhr SommerzeitCSV-Datei: Harleshausen19.csvDiagramm: Harleshausen